createdAt,value
2022-11-30T00:00:24.722Z,13.78
2022-11-30T00:02:58.467Z,13.75
2022-11-30T00:05:27.089Z,13.74
2022-11-30T00:07:58.067Z,13.70
2022-11-30T00:10:26.501Z,13.69
2022-11-30T00:12:55.788Z,13.66
2022-11-30T00:15:24.111Z,13.62
2022-11-30T00:17:58.033Z,13.58
2022-11-30T00:20:27.016Z,13.53
2022-11-30T00:23:03.071Z,13.49
2022-11-30T00:25:31.337Z,13.44
2022-11-30T00:28:04.911Z,13.37
2022-11-30T00:30:33.267Z,13.33
2022-11-30T00:33:01.711Z,13.29
2022-11-30T00:35:33.034Z,13.26
2022-11-30T00:38:04.230Z,13.24
2022-11-30T00:40:32.747Z,13.20
2022-11-30T00:43:02.756Z,13.16
2022-11-30T00:45:31.157Z,13.10
2022-11-30T00:47:59.447Z,13.02
2022-11-30T00:50:30.831Z,12.95
2022-11-30T00:52:59.183Z,12.86
2022-11-30T00:55:30.399Z,12.78
2022-11-30T00:58:02.073Z,12.69
2022-11-30T01:00:30.848Z,12.61
2022-11-30T01:03:03.317Z,12.51
2022-11-30T01:05:34.126Z,12.45
2022-11-30T01:08:10.007Z,12.41
2022-11-30T01:10:42.228Z,12.38
2022-11-30T01:13:11.625Z,12.34
2022-11-30T01:15:43.518Z,12.30
2022-11-30T01:18:16.753Z,12.23
2022-11-30T01:20:45.619Z,12.15
2022-11-30T01:23:16.910Z,12.04
2022-11-30T01:25:59.239Z,11.92
2022-11-30T01:28:27.628Z,11.81
2022-11-30T01:31:18.080Z,11.72
2022-11-30T01:33:51.450Z,11.67
2022-11-30T01:36:23.641Z,11.61
2022-11-30T01:38:57.753Z,11.58
2022-11-30T01:41:32.706Z,11.51
2022-11-30T01:44:10.351Z,11.44
2022-11-30T01:46:44.715Z,11.39
2022-11-30T01:49:35.311Z,11.34
2022-11-30T01:52:23.791Z,11.27
2022-11-30T01:55:09.591Z,11.22
2022-11-30T01:57:52.127Z,11.20
2022-11-30T02:00:23.960Z,11.22
2022-11-30T02:03:20.758Z,11.20
2022-11-30T02:06:00.486Z,11.17
2022-11-30T02:08:31.296Z,11.11
2022-11-30T02:11:07.090Z,11.06
2022-11-30T02:14:01.233Z,11.00
2022-11-30T02:17:13.500Z,11.00
2022-11-30T02:20:09.273Z,11.06
2022-11-30T02:22:46.541Z,11.09
2022-11-30T02:25:20.525Z,11.10
2022-11-30T02:28:04.186Z,11.12
2022-11-30T02:30:44.080Z,11.09
2022-11-30T02:33:19.943Z,11.06
2022-11-30T02:35:58.346Z,11.08
2022-11-30T02:38:37.351Z,11.06
2022-11-30T02:41:16.566Z,11.02
2022-11-30T02:43:48.484Z,11.00
2022-11-30T02:46:40.901Z,11.00
2022-11-30T02:49:57.060Z,10.95
2022-11-30T02:52:27.321Z,10.88
2022-11-30T02:55:15.580Z,10.83
2022-11-30T02:57:44.115Z,10.75
2022-11-30T03:00:20.260Z,10.70
2022-11-30T03:02:48.787Z,10.63
2022-11-30T03:05:17.156Z,10.53
2022-11-30T03:07:53.548Z,10.46
2022-11-30T03:10:22.168Z,10.38
2022-11-30T03:12:50.606Z,10.35
2022-11-30T03:15:20.990Z,10.31
2022-11-30T03:17:52.234Z,10.28
2022-11-30T03:20:23.464Z,10.23
2022-11-30T03:22:54.346Z,10.22
2022-11-30T03:25:22.571Z,10.17
2022-11-30T03:27:53.497Z,10.08
2022-11-30T03:30:22.201Z,10.07
2022-11-30T03:32:56.201Z,10.04
2022-11-30T03:35:31.958Z,9.97
2022-11-30T03:38:06.030Z,9.91
2022-11-30T03:40:37.176Z,9.88
2022-11-30T03:43:16.363Z,9.86
2022-11-30T03:45:53.792Z,9.81
2022-11-30T03:48:26.586Z,9.78
2022-11-30T03:50:59.432Z,9.72
2022-11-30T03:53:27.731Z,9.70
2022-11-30T03:56:12.712Z,9.69
2022-11-30T03:58:42.582Z,9.68
2022-11-30T04:01:40.684Z,9.65
2022-11-30T04:04:11.792Z,9.61
2022-11-30T04:06:45.597Z,9.55
2022-11-30T04:09:18.154Z,9.46
2022-11-30T04:12:02.958Z,9.40
2022-11-30T04:14:40.426Z,9.34
2022-11-30T04:17:08.751Z,9.31
2022-11-30T04:19:40.036Z,9.30
2022-11-30T04:22:08.434Z,9.24
2022-11-30T04:24:45.365Z,9.20
2022-11-30T04:27:18.843Z,9.16
2022-11-30T04:29:53.064Z,9.10
2022-11-30T04:32:21.387Z,9.07
2022-11-30T04:34:51.777Z,9.02
2022-11-30T04:37:22.399Z,8.97
2022-11-30T04:39:59.791Z,8.89
2022-11-30T04:42:33.530Z,8.85
2022-11-30T04:45:06.751Z,8.79
2022-11-30T04:47:42.641Z,8.74
2022-11-30T04:50:13.545Z,8.65
2022-11-30T04:52:53.674Z,8.60
2022-11-30T04:55:28.839Z,8.58
2022-11-30T04:58:23.565Z,8.56
2022-11-30T05:00:56.421Z,8.55
2022-11-30T05:03:27.602Z,8.50
2022-11-30T05:05:57.701Z,8.44
2022-11-30T05:08:34.497Z,8.41
2022-11-30T05:11:15.782Z,8.38
2022-11-30T05:13:49.030Z,8.35
2022-11-30T05:16:25.021Z,8.31
2022-11-30T05:18:57.830Z,8.26
2022-11-30T05:21:33.827Z,8.20
2022-11-30T05:24:18.166Z,8.15
2022-11-30T05:26:54.583Z,8.12
2022-11-30T05:29:25.403Z,8.09
2022-11-30T05:32:00.643Z,8.09
2022-11-30T05:34:41.311Z,8.05
2022-11-30T05:37:21.227Z,8.01
2022-11-30T05:39:49.506Z,7.96
2022-11-30T05:42:32.180Z,7.90
2022-11-30T05:45:05.576Z,7.88
2022-11-30T05:47:46.791Z,7.86
2022-11-30T05:50:16.880Z,7.82
2022-11-30T05:53:07.846Z,7.75
2022-11-30T05:55:39.267Z,7.71
2022-11-30T05:58:18.176Z,7.65
2022-11-30T06:03:37.543Z,7.58
2022-11-30T06:06:12.054Z,7.49
2022-11-30T06:11:35.633Z,7.39
2022-11-30T06:14:12.634Z,7.36
2022-11-30T06:17:10.446Z,7.35
2022-11-30T06:19:49.978Z,7.31
2022-11-30T06:22:24.511Z,7.29
2022-11-30T06:24:57.206Z,7.30
2022-11-30T06:30:26.731Z,7.30
2022-11-30T06:33:09.103Z,7.30
2022-11-30T06:35:46.837Z,7.29
2022-11-30T06:38:27.403Z,7.28
2022-11-30T06:41:17.173Z,7.24
2022-11-30T06:43:52.967Z,7.23
2022-11-30T06:46:30.990Z,7.18
2022-11-30T06:49:15.884Z,7.15
2022-11-30T06:51:55.839Z,7.14
2022-11-30T06:54:27.146Z,7.09
2022-11-30T06:57:04.161Z,7.06
2022-11-30T06:59:40.925Z,7.04
2022-11-30T07:02:19.210Z,7.04
2022-11-30T07:04:52.737Z,7.00
2022-11-30T07:07:26.451Z,6.99
2022-11-30T07:10:10.462Z,6.98
2022-11-30T07:12:48.116Z,6.96
2022-11-30T07:15:31.146Z,6.92
2022-11-30T07:18:02.774Z,6.86
2022-11-30T07:20:40.228Z,6.83
2022-11-30T07:23:32.693Z,6.82
2022-11-30T07:26:08.085Z,6.78
2022-11-30T07:28:49.221Z,6.74
2022-11-30T07:31:39.493Z,6.69
2022-11-30T07:34:14.281Z,6.69
2022-11-30T07:39:49.388Z,6.70
2022-11-30T07:42:32.082Z,6.66
2022-11-30T07:45:02.552Z,6.64
2022-11-30T07:47:37.618Z,6.59
2022-11-30T07:50:35.663Z,6.55
2022-11-30T07:53:16.621Z,6.50
2022-11-30T07:55:47.834Z,6.47
2022-11-30T07:58:26.198Z,6.43
2022-11-30T08:01:06.594Z,6.41
2022-11-30T08:03:40.388Z,6.41
2022-11-30T08:06:17.388Z,6.42
2022-11-30T08:08:46.697Z,6.43
2022-11-30T08:11:36.689Z,6.36
2022-11-30T08:14:13.514Z,6.34
2022-11-30T08:16:58.451Z,6.31
2022-11-30T08:19:41.648Z,6.29
2022-11-30T08:22:10.987Z,6.24
2022-11-30T08:24:52.265Z,6.21
2022-11-30T08:27:30.346Z,6.20
2022-11-30T08:30:06.204Z,6.16
2022-11-30T08:32:59.577Z,6.11
2022-11-30T08:35:43.262Z,6.10
2022-11-30T08:38:19.950Z,6.11
2022-11-30T08:40:53.937Z,6.08
2022-11-30T08:43:30.205Z,6.07
2022-11-30T08:46:27.388Z,6.03
2022-11-30T08:49:25.770Z,6.00
2022-11-30T08:52:20.098Z,5.96
2022-11-30T08:54:56.968Z,5.90
2022-11-30T08:57:32.911Z,5.89
2022-11-30T09:00:07.983Z,5.87
2022-11-30T09:03:04.385Z,5.85
2022-11-30T09:05:38.492Z,5.80
2022-11-30T09:08:18.620Z,5.78
2022-11-30T09:11:04.426Z,5.78
2022-11-30T09:13:44.387Z,5.75
2022-11-30T09:16:50.263Z,5.69
2022-11-30T09:19:23.398Z,5.69
2022-11-30T09:22:14.351Z,5.71
2022-11-30T09:24:48.529Z,5.69
2022-11-30T09:27:22.000Z,5.71
2022-11-30T09:30:15.477Z,5.68
2022-11-30T09:33:01.504Z,5.66
2022-11-30T09:35:34.586Z,5.66
2022-11-30T09:38:12.857Z,5.64
2022-11-30T09:40:50.746Z,5.67
2022-11-30T09:43:51.552Z,5.68
2022-11-30T09:46:36.470Z,5.63
2022-11-30T09:52:46.912Z,5.62
2022-11-30T09:55:42.253Z,5.66
2022-11-30T09:58:38.419Z,5.72
2022-11-30T10:01:19.004Z,5.74
2022-11-30T10:03:55.557Z,5.65
2022-11-30T10:07:23.184Z,5.51
2022-11-30T10:10:32.110Z,5.46
2022-11-30T10:18:11.956Z,5.39
2022-11-30T10:20:39.327Z,5.34
2022-11-30T10:23:44.537Z,5.34
2022-11-30T10:26:33.352Z,5.33
2022-11-30T10:29:47.563Z,5.26
2022-11-30T10:32:31.717Z,5.23
2022-11-30T10:35:30.081Z,5.20
2022-11-30T10:38:24.195Z,5.16
2022-11-30T10:44:41.626Z,5.00
2022-11-30T10:47:42.986Z,4.95
2022-11-30T10:50:29.161Z,4.94
2022-11-30T10:53:18.478Z,4.97
2022-11-30T10:56:36.403Z,4.96
2022-11-30T10:59:35.496Z,4.97
2022-11-30T11:02:49.869Z,4.92
2022-11-30T11:05:54.827Z,4.86
2022-11-30T11:08:54.312Z,4.81
2022-11-30T11:11:45.787Z,4.78
2022-11-30T11:14:31.369Z,4.76
2022-11-30T11:17:46.030Z,4.75
2022-11-30T11:21:12.133Z,4.73
2022-11-30T11:23:57.437Z,4.70
2022-11-30T11:26:43.945Z,4.68
2022-11-30T11:29:43.827Z,4.68
2022-11-30T11:35:53.400Z,4.66
2022-11-30T11:38:41.458Z,4.62
2022-11-30T11:41:37.551Z,4.66
2022-11-30T11:45:21.509Z,4.69
2022-11-30T11:48:28.647Z,4.68
2022-11-30T11:51:25.061Z,4.66
2022-11-30T11:54:26.546Z,4.63
2022-11-30T11:57:24.900Z,4.59
2022-11-30T12:00:20.516Z,4.53
2022-11-30T12:03:23.136Z,4.48
2022-11-30T12:09:59.895Z,4.42
2022-11-30T12:12:50.660Z,4.33
2022-11-30T12:19:32.618Z,4.30
2022-11-30T12:22:40.431Z,4.35
2022-11-30T12:25:51.202Z,4.42
2022-11-30T12:29:12.512Z,4.36
2022-11-30T12:35:58.816Z,4.14
2022-11-30T12:42:27.304Z,4.06
2022-11-30T12:48:45.268Z,4.14
2022-11-30T12:51:42.800Z,4.14
2022-11-30T12:54:25.501Z,4.15
2022-11-30T12:57:59.916Z,4.12
2022-11-30T13:01:02.262Z,4.08
2022-11-30T13:04:47.165Z,4.02
2022-11-30T13:08:13.917Z,3.94
2022-11-30T13:15:30.478Z,3.95
2022-11-30T13:17:36.840Z,3.96
2022-11-30T13:21:06.834Z,4.00
2022-11-30T13:24:32.995Z,4.02
2022-11-30T13:27:50.244Z,4.06
2022-11-30T13:31:35.960Z,4.11
2022-11-30T13:34:30.311Z,4.13
2022-11-30T13:37:38.817Z,4.05
2022-11-30T13:40:43.630Z,3.94
2022-11-30T13:44:12.926Z,3.86
2022-11-30T13:47:28.878Z,3.80
2022-11-30T13:50:37.955Z,3.73
2022-11-30T13:57:09.688Z,3.69
2022-11-30T14:09:56.531Z,3.64
2022-11-30T14:13:38.290Z,3.63
2022-11-30T14:19:31.441Z,3.61
2022-11-30T14:24:23.527Z,3.61
2022-11-30T14:29:31.752Z,3.76
2022-11-30T14:33:08.940Z,3.75
2022-11-30T14:36:01.352Z,3.66
2022-11-30T14:38:52.119Z,3.58
2022-11-30T14:42:08.407Z,3.55
2022-11-30T14:54:44.390Z,3.47
2022-11-30T14:58:32.185Z,3.47
2022-11-30T15:01:25.363Z,3.53
2022-11-30T15:04:44.145Z,3.56
2022-11-30T15:14:41.929Z,3.54
2022-11-30T15:20:35.598Z,3.56
2022-11-30T15:23:53.303Z,3.56
2022-11-30T15:26:47.480Z,3.56
2022-11-30T15:31:23.070Z,3.58
2022-11-30T15:35:22.328Z,3.59
2022-11-30T15:36:46.405Z,3.64
2022-11-30T15:39:49.543Z,3.69
2022-11-30T15:46:01.458Z,3.83
2022-11-30T15:48:59.605Z,3.86
2022-11-30T15:52:57.586Z,3.91
2022-11-30T15:55:39.268Z,3.99
2022-11-30T16:02:26.726Z,4.17
2022-11-30T16:05:37.410Z,4.27
2022-11-30T16:08:29.776Z,4.33
2022-11-30T16:17:16.313Z,4.57
2022-11-30T16:20:29.239Z,4.67
2022-11-30T16:23:24.018Z,4.73
2022-11-30T16:25:58.974Z,4.80
2022-11-30T16:29:12.302Z,4.84
2022-11-30T16:32:30.243Z,4.93
2022-11-30T16:35:33.749Z,4.99
2022-11-30T16:38:28.568Z,5.10
2022-11-30T16:41:44.789Z,5.20
2022-11-30T16:44:56.403Z,5.31
2022-11-30T16:50:59.020Z,5.50
2022-11-30T16:53:53.803Z,5.60
2022-11-30T16:56:59.822Z,5.71
2022-11-30T16:59:49.253Z,5.83
2022-11-30T17:02:38.393Z,5.91
2022-11-30T17:05:44.765Z,6.00
2022-11-30T17:08:54.453Z,6.13
2022-11-30T17:12:12.665Z,6.27
2022-11-30T17:15:01.684Z,6.43
2022-11-30T17:17:59.278Z,6.53
2022-11-30T17:21:10.885Z,6.66
2022-11-30T17:23:34.277Z,6.79
2022-11-30T17:26:20.085Z,6.89
2022-11-30T17:29:36.472Z,7.01
2022-11-30T17:32:07.905Z,7.12
2022-11-30T17:34:47.473Z,7.21
2022-11-30T17:37:38.641Z,7.34
2022-11-30T17:40:20.985Z,7.43
2022-11-30T17:42:55.930Z,7.54
2022-11-30T17:45:40.264Z,7.61
2022-11-30T17:48:52.300Z,7.73
2022-11-30T17:51:30.192Z,7.83
2022-11-30T17:54:09.128Z,7.91
2022-11-30T17:57:14.521Z,8.00
2022-11-30T17:59:49.690Z,8.08
2022-11-30T18:05:27.005Z,8.30
2022-11-30T18:08:17.629Z,8.37
2022-11-30T18:10:51.091Z,8.49
2022-11-30T18:13:35.065Z,8.65
2022-11-30T18:16:27.567Z,8.77
2022-11-30T18:18:59.415Z,8.90
2022-11-30T18:21:35.849Z,8.98
2022-11-30T18:24:13.727Z,9.04
2022-11-30T18:26:47.216Z,9.08
2022-11-30T18:29:18.559Z,9.18
2022-11-30T18:32:05.790Z,9.28
2022-11-30T18:34:44.506Z,9.37
2022-11-30T18:37:20.844Z,9.42
2022-11-30T18:40:04.802Z,9.48
2022-11-30T18:45:26.026Z,9.71
2022-11-30T18:48:18.909Z,9.83
2022-11-30T18:51:01.337Z,9.94
2022-11-30T18:53:32.831Z,9.97
2022-11-30T18:56:15.307Z,10.08
2022-11-30T18:58:54.826Z,10.17
2022-11-30T19:01:32.257Z,10.29
2022-11-30T19:04:12.319Z,10.38
2022-11-30T19:06:47.710Z,10.47
2022-11-30T19:09:26.125Z,10.59
2022-11-30T19:12:12.367Z,10.71
2022-11-30T19:14:46.890Z,10.84
2022-11-30T19:17:15.036Z,10.91
2022-11-30T19:19:58.029Z,10.97
2022-11-30T19:22:33.901Z,11.05
2022-11-30T19:25:05.233Z,11.13
2022-11-30T19:27:41.506Z,11.25
2022-11-30T19:30:13.391Z,11.38
2022-11-30T19:32:43.659Z,11.47
2022-11-30T19:35:11.961Z,11.52
2022-11-30T19:37:45.334Z,11.59
2022-11-30T19:40:22.935Z,11.68
2022-11-30T19:42:58.443Z,11.71
2022-11-30T19:45:26.823Z,11.79
2022-11-30T19:47:55.150Z,11.92
2022-11-30T19:50:32.073Z,11.98
2022-11-30T19:53:01.223Z,12.00
2022-11-30T19:55:32.544Z,12.07
2022-11-30T19:58:07.455Z,12.14
2022-11-30T20:00:39.475Z,12.24
2022-11-30T20:03:12.749Z,12.33
2022-11-30T20:06:04.246Z,12.41
2022-11-30T20:08:41.069Z,12.48
2022-11-30T20:11:13.240Z,12.56
2022-11-30T20:13:44.037Z,12.67
2022-11-30T20:16:21.998Z,12.75
2022-11-30T20:19:04.365Z,12.83
2022-11-30T20:21:37.306Z,12.90
2022-11-30T20:24:17.019Z,12.95
2022-11-30T20:26:51.307Z,13.02
2022-11-30T20:29:20.847Z,13.05
2022-11-30T20:32:09.388Z,13.07
2022-11-30T20:34:44.646Z,13.18
2022-11-30T20:37:13.607Z,13.21
2022-11-30T20:39:54.580Z,13.29
2022-11-30T20:42:25.891Z,13.39
2022-11-30T20:44:54.244Z,13.47
2022-11-30T20:47:29.893Z,13.50
2022-11-30T20:50:05.019Z,13.49
2022-11-30T20:52:33.383Z,13.57
2022-11-30T20:55:03.535Z,13.68
2022-11-30T20:57:34.820Z,13.74
2022-11-30T21:00:13.087Z,13.81
2022-11-30T21:02:41.844Z,13.88
2022-11-30T21:05:10.584Z,13.90
2022-11-30T21:07:57.178Z,13.99
2022-11-30T21:10:30.379Z,14.09
2022-11-30T21:12:58.838Z,14.18
2022-11-30T21:15:32.027Z,14.23
2022-11-30T21:18:03.444Z,14.27
2022-11-30T21:20:36.428Z,14.35
2022-11-30T21:23:07.623Z,14.44
2022-11-30T21:25:42.015Z,14.50
2022-11-30T21:28:20.375Z,14.56
2022-11-30T21:31:07.998Z,14.66
2022-11-30T21:33:36.390Z,14.72
2022-11-30T21:36:12.569Z,14.76
2022-11-30T21:38:44.944Z,14.84
2022-11-30T21:41:16.845Z,14.93
2022-11-30T21:43:47.791Z,15.02
2022-11-30T21:46:19.208Z,15.11
2022-11-30T21:49:05.257Z,15.14
2022-11-30T21:51:38.443Z,15.16
2022-11-30T21:54:23.235Z,15.20
2022-11-30T21:56:54.670Z,15.21
2022-11-30T21:59:25.222Z,15.25
2022-11-30T22:01:53.520Z,15.28
2022-11-30T22:04:27.820Z,15.33
2022-11-30T22:06:58.495Z,15.35
2022-11-30T22:09:26.824Z,15.35
2022-11-30T22:11:58.665Z,15.35
2022-11-30T22:14:35.786Z,15.38
2022-11-30T22:17:04.197Z,15.36
2022-11-30T22:19:32.579Z,15.30
2022-11-30T22:22:03.954Z,15.27
2022-11-30T22:24:34.827Z,15.28
2022-11-30T22:27:03.148Z,15.26
2022-11-30T22:29:37.070Z,15.22
2022-11-30T22:32:06.178Z,15.20
2022-11-30T22:34:34.831Z,15.18
2022-11-30T22:37:05.627Z,15.20
2022-11-30T22:39:33.978Z,15.23
2022-11-30T22:42:07.464Z,15.27
2022-11-30T22:44:38.019Z,15.30
2022-11-30T22:47:08.894Z,15.35
2022-11-30T22:49:40.502Z,15.34
2022-11-30T22:52:11.084Z,15.31
2022-11-30T22:54:39.502Z,15.27
2022-11-30T22:57:16.795Z,15.24
2022-11-30T22:59:45.410Z,15.16
2022-11-30T23:02:24.350Z,15.07
2022-11-30T23:04:52.744Z,14.96
2022-11-30T23:07:21.093Z,14.91
2022-11-30T23:09:51.375Z,14.84
2022-11-30T23:12:57.515Z,14.76
2022-11-30T23:15:17.310Z,14.71
2022-11-30T23:17:45.679Z,14.69
2022-11-30T23:20:16.936Z,14.65
2022-11-30T23:22:54.290Z,14.64
2022-11-30T23:25:23.186Z,14.65
2022-11-30T23:27:51.484Z,14.66
2022-11-30T23:30:24.499Z,14.66
2022-11-30T23:32:58.843Z,14.58
2022-11-30T23:35:34.186Z,14.54
2022-11-30T23:38:11.740Z,14.50
2022-11-30T23:40:43.144Z,14.41
2022-11-30T23:43:11.479Z,14.37
2022-11-30T23:45:45.585Z,14.34
2022-11-30T23:48:17.081Z,14.31
2022-11-30T23:50:46.309Z,14.27
2022-11-30T23:53:26.210Z,14.23
2022-11-30T23:55:57.545Z,14.18
2022-11-30T23:58:27.671Z,14.14
